Lawrence, KS

9:25 AM CDT on April 18, 2015 (GMT -0500)
Lawrence Municipal | | Change Station
CLOSE
Current Station
Airport
Location: Lawrence,
Elevation: 830 ft
Nearby Weather Stations

Elev 830 ft 39.01 °N, 95.21 °W | Updated 4 minutes ago

Thunderstorm
Thunderstorm
60 °F
Feels Like 60 °F
N
21
Wind Variable Wind from South
Gusts 25 mph

Today
High -- | Low -- °F
--% Chance of Precip.
Yesterday
High -- | Low -- °F
Precip. -- in
6:40 AM 8:00 PM
Waning Crescent, 0% visible
Pressure 29.96 in
Visibility 2.0 miles
Clouds Few 700 ft
Mostly Cloudy 2300 ft
Overcast 5500 ft
Dew Point 57 °F
Humidity 90%
Rainfall 0.00 in
Snow Depth Not available.
UV 1 out of 12
Pollen 5.30 out of 12
Air Quality Not available.
Flu Activity Sporadic
SPECI KLWC 181421Z AUTO 18018G22KT 2SM TSRA BR FEW007 BKN023 OVC055 16/14 A2996 RMK AO2 LTG DSNT ALQDS TSB05 PRESRR P0009 T01560139

More Conditions Fewer Conditions

Pressure 29.96 in
Visibility 2.0 miles
Clouds Few 700 ft
Mostly Cloudy 2300 ft
Overcast 5500 ft
Dew Point 57 °F
Humidity 90%
Rainfall 0.00 in
Snow Depth Not available.
UV 1 out of 12
Pollen 5.30 out of 12
Air Quality Not available.
Flu Activity Sporadic
SPECI KLWC 181421Z AUTO 18018G22KT 2SM TSRA BR FEW007 BKN023 OVC055 16/14 A2996 RMK AO2 LTG DSNT ALQDS TSB05 PRESRR P0009 T01560139

More Conditions Fewer Conditions

10-Day Weather Forecast

Almanac

Astronomy

Apr. 18, 2015 Rise Set
Actual Time
Civil Twilight
Nautical Twilight
Astronomical Twilight
Moon
Length of Visible Light
Length of Day
Tomorrow will be .
, % of the Moon is Illuminated

Today's Extremes

State Highs State Lows

Community

WunderPhotos

Upload Photos

1,814,414 photos uploaded!

WunderBlogs® & News

Nearby

Air Quality

  Air Quality AQ Index Pollutant
Not available.

Snow Depth

Station Depth Elevation

Earthquake Activity

City Distance Mag. Time & Date
Minimum magnitude displayed is 2.5.

Coastal Water Temperatures

Place Temperature

Stations

Nearby Weather Stations

Station Location Temp. Windchill Dew Point Humidity Wind Precip. Elev Updated Type